Terminal Aerodrome Forecast
Issued by NWS Tuscon, AZ

Home | Current Version | Previous Version | Text Only | Print | Product List | Glossary On
Versions: 1 2 3 4 5 6 7 8 9 10 11 12
000
FTUS45 KTWC 300500
TAFTUS
TAF
KTUS 300522Z 3006/3106 22005KT P6SM BKN200
     FM300800 14007KT P6SM FEW150 OVC200
     FM302000 30010KT P6SM SCT100 BKN150=

USA.gov is the U.S. government's official web portal to all federal, state and local government web resources and services.